createdAt,value
2019-05-22T00:01:19.100Z,99.99
2019-05-22T00:04:19.120Z,99.99
2019-05-22T00:07:19.034Z,99.99
2019-05-22T00:10:19.045Z,99.99
2019-05-22T00:13:18.970Z,99.99
2019-05-22T00:16:18.968Z,99.99
2019-05-22T00:19:18.931Z,99.99
2019-05-22T00:22:18.872Z,99.99
2019-05-22T00:25:18.861Z,99.99
2019-05-22T00:28:18.809Z,99.99
2019-05-22T00:31:18.820Z,99.71
2019-05-22T00:34:18.746Z,99.99
2019-05-22T00:37:18.738Z,99.99
2019-05-22T00:40:18.678Z,99.99
2019-05-22T00:43:18.694Z,99.99
2019-05-22T00:46:18.631Z,99.99
2019-05-22T00:49:18.582Z,99.99
2019-05-22T00:52:18.568Z,99.99
2019-05-22T00:55:18.535Z,99.99
2019-05-22T00:58:18.523Z,99.99
2019-05-22T01:01:18.468Z,99.99
2019-05-22T01:04:18.476Z,99.99
2019-05-22T01:07:18.403Z,99.99
2019-05-22T01:10:18.407Z,99.55
2019-05-22T01:13:18.358Z,99.76
2019-05-22T01:16:18.295Z,99.76
2019-05-22T01:19:18.292Z,98.94
2019-05-22T01:22:18.233Z,99.45
2019-05-22T01:25:18.227Z,99.25
2019-05-22T01:28:18.163Z,99.35
2019-05-22T01:31:18.165Z,99.76
2019-05-22T01:34:18.138Z,98.94
2019-05-22T01:37:18.110Z,98.79
2019-05-22T01:40:18.038Z,98.74
2019-05-22T01:43:18.032Z,98.13
2019-05-22T01:46:17.993Z,98.23
2019-05-22T01:49:17.964Z,97.92
2019-05-22T01:52:17.909Z,98.68
2019-05-22T01:55:17.894Z,98.38
2019-05-22T01:58:17.884Z,97.36
2019-05-22T02:01:17.839Z,97.36
2019-05-22T02:04:17.772Z,97.05
2019-05-22T02:07:17.749Z,96.30
2019-05-22T02:10:17.734Z,96.39
2019-05-22T02:13:17.672Z,97.05
2019-05-22T02:16:17.666Z,97.25
2019-05-22T02:19:17.609Z,96.84
2019-05-22T02:22:17.606Z,97.05
2019-05-22T02:25:17.544Z,97.56
2019-05-22T02:28:17.539Z,97.50
2019-05-22T02:31:24.536Z,97.91
2019-05-22T02:34:24.492Z,97.50
2019-05-22T02:37:17.444Z,96.59
2019-05-22T02:40:24.514Z,96.89
2019-05-22T02:43:17.377Z,96.18
2019-05-22T02:46:17.318Z,96.89
2019-05-22T02:49:17.309Z,97.50
2019-05-22T02:52:17.253Z,96.59
2019-05-22T02:55:17.258Z,97.20
2019-05-22T02:58:17.223Z,97.50
2019-05-22T03:01:17.160Z,97.00
2019-05-22T03:04:17.150Z,97.81
2019-05-22T03:07:17.094Z,97.30
2019-05-22T03:10:17.095Z,96.18
2019-05-22T03:13:17.056Z,97.09
2019-05-22T03:16:16.994Z,97.24
2019-05-22T03:19:16.999Z,96.63
2019-05-22T03:22:16.932Z,97.45
2019-05-22T03:25:16.924Z,96.53
2019-05-22T03:28:16.891Z,97.04
2019-05-22T03:31:16.843Z,97.14
2019-05-22T03:34:16.847Z,96.43
2019-05-22T03:37:16.779Z,97.45
2019-05-22T03:40:16.771Z,97.55
2019-05-22T03:43:16.720Z,98.06
2019-05-22T03:46:16.695Z,97.45
2019-05-22T03:49:29.342Z,96.94
2019-05-22T03:52:17.640Z,97.24
2019-05-22T03:55:16.585Z,97.20
2019-05-22T03:58:16.577Z,97.55
2019-05-22T04:01:16.514Z,97.45
2019-05-22T04:04:16.516Z,97.55
2019-05-22T04:07:16.457Z,97.55
2019-05-22T04:10:16.439Z,97.65
2019-05-22T04:13:16.478Z,97.24
2019-05-22T04:16:16.375Z,97.45
2019-05-22T04:19:16.339Z,97.86
2019-05-22T04:22:16.321Z,98.06
2019-05-22T04:25:16.250Z,98.47
2019-05-22T04:28:16.246Z,98.36
2019-05-22T04:31:16.214Z,98.06
2019-05-22T04:34:16.156Z,98.36
2019-05-22T04:37:16.152Z,97.34
2019-05-22T04:40:16.088Z,98.47
2019-05-22T04:43:20.135Z,97.34
2019-05-22T04:46:16.053Z,97.34
2019-05-22T04:49:15.996Z,97.75
2019-05-22T04:52:15.987Z,97.14
2019-05-22T04:55:15.928Z,97.45
2019-05-22T04:58:15.922Z,97.04
2019-05-22T05:01:15.864Z,96.27
2019-05-22T05:04:15.855Z,97.14
2019-05-22T05:07:15.837Z,97.45
2019-05-22T05:10:15.798Z,96.63
2019-05-22T05:13:15.745Z,97.14
2019-05-22T05:16:15.701Z,96.43
2019-05-22T05:19:15.690Z,95.41
2019-05-22T05:22:15.635Z,96.33
2019-05-22T05:25:15.640Z,95.81
2019-05-22T05:28:15.574Z,94.55
2019-05-22T05:31:15.601Z,93.98
2019-05-22T05:34:15.540Z,94.79
2019-05-22T05:37:15.475Z,96.02
2019-05-22T05:40:15.480Z,94.94
2019-05-22T05:43:15.420Z,95.81
2019-05-22T05:46:15.405Z,94.94
2019-05-22T05:49:15.369Z,95.04
2019-05-22T05:52:15.330Z,95.10
2019-05-22T05:55:15.280Z,95.65
2019-05-22T05:58:15.288Z,95.41
2019-05-22T06:01:15.231Z,95.41
2019-05-22T06:04:15.215Z,96.47
2019-05-22T06:07:15.156Z,96.58
2019-05-22T06:10:15.147Z,96.68
2019-05-22T06:13:15.097Z,95.56
2019-05-22T06:16:15.086Z,96.06
2019-05-22T06:19:15.019Z,95.96
2019-05-22T06:22:15.044Z,96.47
2019-05-22T06:25:14.993Z,96.72
2019-05-22T06:28:14.943Z,97.54
2019-05-22T06:31:14.895Z,98.31
2019-05-22T06:34:14.870Z,98.41
2019-05-22T06:37:14.875Z,98.52
2019-05-22T06:40:14.797Z,97.64
2019-05-22T06:43:14.774Z,96.01
2019-05-22T06:46:14.767Z,95.09
2019-05-22T06:49:14.715Z,95.45
2019-05-22T06:52:14.700Z,94.12
2019-05-22T06:55:14.671Z,94.90
2019-05-22T06:58:14.630Z,93.77
2019-05-22T07:01:14.609Z,92.41
2019-05-22T07:04:14.539Z,91.28
2019-05-22T07:07:14.549Z,91.79
2019-05-22T07:10:14.543Z,90.26
2019-05-22T07:13:14.459Z,89.45
2019-05-22T07:16:14.419Z,91.24
2019-05-22T07:19:14.412Z,90.63
2019-05-22T07:22:14.355Z,90.22
2019-05-22T07:25:14.402Z,89.71
2019-05-22T07:28:14.299Z,89.92
2019-05-22T07:31:14.244Z,89.51
2019-05-22T07:34:14.244Z,90.42
2019-05-22T07:37:14.195Z,90.28
2019-05-22T07:40:14.175Z,90.22
2019-05-22T07:43:14.189Z,89.40
2019-05-22T07:46:14.084Z,90.73
2019-05-22T07:49:14.073Z,90.38
2019-05-22T07:52:14.019Z,89.77
2019-05-22T07:55:13.998Z,89.26
2019-05-22T07:58:13.969Z,89.16
2019-05-22T08:01:14.325Z,88.75
2019-05-22T08:04:13.888Z,89.22
2019-05-22T08:07:13.874Z,89.16
2019-05-22T08:10:14.049Z,88.04
2019-05-22T08:13:13.815Z,88.24
2019-05-22T08:16:13.773Z,90.22
2019-05-22T08:19:13.751Z,88.49
2019-05-22T08:22:13.730Z,90.42
2019-05-22T08:25:13.663Z,89.00
2019-05-22T08:28:13.655Z,88.85
2019-05-22T08:31:13.610Z,89.28
2019-05-22T08:34:13.579Z,88.06
2019-05-22T08:37:13.543Z,88.22
2019-05-22T08:40:13.503Z,86.39
2019-05-22T08:43:13.482Z,87.10
2019-05-22T08:46:13.464Z,88.16
2019-05-22T08:49:13.409Z,89.63
2019-05-22T08:52:22.893Z,89.53
2019-05-22T08:55:14.374Z,90.28
2019-05-22T08:58:13.335Z,90.48
2019-05-22T09:01:13.275Z,88.65
2019-05-22T09:04:13.258Z,88.20
2019-05-22T09:07:13.261Z,87.30
2019-05-22T09:10:13.209Z,85.05
2019-05-22T09:13:13.156Z,81.96
2019-05-22T09:16:20.159Z,81.54
2019-05-22T09:19:13.578Z,78.79
2019-05-22T09:22:20.103Z,80.49
2019-05-22T09:25:13.568Z,74.19
2019-05-22T09:28:12.984Z,71.73
2019-05-22T09:31:13.423Z,72.04
2019-05-22T09:34:12.917Z,72.31
2019-05-22T09:37:12.904Z,72.01
2019-05-22T09:40:12.858Z,72.88
2019-05-22T09:43:12.842Z,71.91
2019-05-22T09:46:12.788Z,73.72
2019-05-22T09:49:12.768Z,75.25
2019-05-22T09:52:12.741Z,78.02
2019-05-22T09:55:12.706Z,77.51
2019-05-22T09:58:12.662Z,76.27
2019-05-22T10:01:12.663Z,78.30
2019-05-22T10:04:12.598Z,74.91
2019-05-22T10:07:12.594Z,75.96
2019-05-22T10:10:12.558Z,76.51
2019-05-22T10:13:12.521Z,75.66
2019-05-22T10:16:12.473Z,74.48
2019-05-22T10:19:12.439Z,71.97
2019-05-22T10:22:12.444Z,68.23
2019-05-22T10:25:19.414Z,67.90
2019-05-22T10:28:12.385Z,61.85
2019-05-22T10:31:14.954Z,66.41
2019-05-22T10:34:12.295Z,70.15
2019-05-22T10:37:12.277Z,72.85
2019-05-22T10:40:12.251Z,74.30
2019-05-22T10:43:12.178Z,72.82
2019-05-22T10:46:12.251Z,74.54
2019-05-22T10:49:12.145Z,73.53
2019-05-22T10:52:12.964Z,72.44
2019-05-22T10:55:12.043Z,68.70
2019-05-22T10:58:12.062Z,71.60
2019-05-22T11:01:19.032Z,67.46
2019-05-22T11:04:19.624Z,66.41
2019-05-22T11:07:18.994Z,67.06
2019-05-22T11:10:11.918Z,61.65
2019-05-22T11:13:11.906Z,63.20
2019-05-22T11:16:11.828Z,61.35
2019-05-22T11:19:11.820Z,62.96
2019-05-22T11:22:11.788Z,62.18
2019-05-22T11:25:11.757Z,63.23
2019-05-22T11:28:11.721Z,64.61
2019-05-22T11:31:11.744Z,63.26
2019-05-22T11:34:11.631Z,61.56
2019-05-22T11:37:11.618Z,60.89
2019-05-22T11:40:11.590Z,57.07
2019-05-22T11:43:11.570Z,59.64
2019-05-22T11:46:11.498Z,61.16
2019-05-22T11:49:11.501Z,59.79
2019-05-22T11:52:11.472Z,56.67
2019-05-22T11:55:11.403Z,57.54
2019-05-22T11:58:11.434Z,57.19
2019-05-22T12:01:11.339Z,57.29
2019-05-22T12:04:11.442Z,58.07
2019-05-22T12:07:11.273Z,57.52
2019-05-22T12:10:11.277Z,54.93
2019-05-22T12:13:11.511Z,57.34
2019-05-22T12:16:11.209Z,48.14
2019-05-22T12:19:11.176Z,40.23
2019-05-22T12:22:11.113Z,47.58
2019-05-22T12:25:11.132Z,46.67
2019-05-22T12:28:11.051Z,52.64
2019-05-22T12:31:11.058Z,48.79
2019-05-22T12:34:10.986Z,41.74
2019-05-22T12:37:10.986Z,38.18
2019-05-22T12:40:10.948Z,46.09
2019-05-22T12:43:10.928Z,43.64
2019-05-22T12:46:10.857Z,47.42
2019-05-22T12:49:10.867Z,40.66
2019-05-22T12:52:10.825Z,45.78
2019-05-22T12:55:10.799Z,39.20
2019-05-22T12:58:10.768Z,39.37
2019-05-22T13:01:10.755Z,40.25
2019-05-22T13:04:10.678Z,41.28
2019-05-22T13:07:10.678Z,38.68
2019-05-22T13:10:10.612Z,35.40
2019-05-22T13:13:10.667Z,34.48
2019-05-22T13:16:10.584Z,38.40
2019-05-22T13:19:10.552Z,38.43
2019-05-22T13:22:10.523Z,43.24
2019-05-22T13:25:10.463Z,41.47
2019-05-22T13:28:10.462Z,44.88
2019-05-22T13:31:10.395Z,36.64
2019-05-22T13:34:10.412Z,38.35
2019-05-22T13:37:10.339Z,46.66
2019-05-22T13:40:26.728Z,46.99
2019-05-22T13:43:11.270Z,44.95
2019-05-22T13:46:10.276Z,46.13
2019-05-22T13:49:10.213Z,46.76
2019-05-22T13:52:10.212Z,51.37
2019-05-22T13:55:10.146Z,44.92
2019-05-22T13:58:10.152Z,39.44
2019-05-22T14:01:10.086Z,44.03
2019-05-22T14:04:10.086Z,41.71
2019-05-22T14:07:10.044Z,38.45
2019-05-22T14:10:10.000Z,39.01
2019-05-22T14:13:09.991Z,38.09
2019-05-22T14:16:09.924Z,39.02
2019-05-22T14:19:09.922Z,40.28
2019-05-22T14:22:09.869Z,45.17
2019-05-22T14:25:09.862Z,44.97
2019-05-22T14:28:09.808Z,46.14
2019-05-22T14:31:09.801Z,41.66
2019-05-22T14:34:09.775Z,42.35
2019-05-22T14:37:09.709Z,42.05
2019-05-22T14:40:09.709Z,40.56
2019-05-22T14:43:09.642Z,35.24
2019-05-22T14:46:09.642Z,39.21
2019-05-22T14:49:09.589Z,44.87
2019-05-22T14:52:09.574Z,42.13
2019-05-22T14:55:09.518Z,41.77
2019-05-22T14:58:09.525Z,45.09
2019-05-22T15:01:09.463Z,45.75
2019-05-22T15:04:09.456Z,47.19
2019-05-22T15:07:09.399Z,49.33
2019-05-22T15:10:09.404Z,41.85
2019-05-22T15:13:09.323Z,38.12
2019-05-22T15:16:09.347Z,38.35
2019-05-22T15:19:09.264Z,38.99
2019-05-22T15:22:09.313Z,37.77
2019-05-22T15:25:09.202Z,35.69
2019-05-22T15:28:09.221Z,37.49
2019-05-22T15:31:09.135Z,36.32
2019-05-22T15:34:09.135Z,42.19
2019-05-22T15:37:09.073Z,39.47
2019-05-22T15:40:09.076Z,45.15
2019-05-22T15:43:09.015Z,46.78
2019-05-22T15:46:09.015Z,47.75
2019-05-22T15:49:08.992Z,51.09
2019-05-22T15:52:08.918Z,45.17
2019-05-22T15:55:08.927Z,38.76
2019-05-22T15:58:08.879Z,40.80
2019-05-22T16:01:08.855Z,39.29
2019-05-22T16:04:15.831Z,38.07
2019-05-22T16:07:08.808Z,37.56
2019-05-22T16:10:08.730Z,41.13
2019-05-22T16:13:08.746Z,41.60
2019-05-22T16:16:08.668Z,41.36
2019-05-22T16:19:08.659Z,41.05
2019-05-22T16:22:08.636Z,44.79
2019-05-22T16:25:08.585Z,44.18
2019-05-22T16:28:08.597Z,46.65
2019-05-22T16:31:08.530Z,46.87
2019-05-22T16:34:08.499Z,50.01
2019-05-22T16:37:08.448Z,47.26
2019-05-22T16:40:08.427Z,51.54
2019-05-22T16:43:08.398Z,47.70
2019-05-22T16:46:08.347Z,47.47
2019-05-22T16:49:08.340Z,47.31
2019-05-22T16:52:08.319Z,48.51
2019-05-22T16:55:08.286Z,49.48
2019-05-22T16:58:08.215Z,50.01
2019-05-22T17:01:08.216Z,46.72
2019-05-22T17:04:08.183Z,48.44
2019-05-22T17:07:08.163Z,47.62
2019-05-22T17:10:08.090Z,50.33
2019-05-22T17:13:12.027Z,51.04
2019-05-22T17:16:08.032Z,52.34
2019-05-22T17:19:25.724Z,48.52
2019-05-22T17:22:08.967Z,47.86
2019-05-22T17:25:07.945Z,49.48
2019-05-22T17:28:07.917Z,46.80
2019-05-22T17:31:07.861Z,52.34
2019-05-22T17:34:07.871Z,51.93
2019-05-22T17:37:07.802Z,50.07
2019-05-22T17:40:07.814Z,51.08
2019-05-22T17:43:07.738Z,52.62
2019-05-22T17:46:07.733Z,53.12
2019-05-22T17:49:07.673Z,53.05
2019-05-22T17:52:07.668Z,53.65
2019-05-22T17:55:07.633Z,53.98
2019-05-22T17:58:07.573Z,55.29
2019-05-22T18:01:07.566Z,55.92
2019-05-22T18:04:07.516Z,57.64
2019-05-22T18:07:07.500Z,55.65
2019-05-22T18:10:07.451Z,56.38
2019-05-22T18:13:07.461Z,56.07
2019-05-22T18:16:07.385Z,57.29
2019-05-22T18:19:07.379Z,58.12
2019-05-22T18:22:07.353Z,58.45
2019-05-22T18:25:07.313Z,57.67
2019-05-22T18:28:07.284Z,60.03
2019-05-22T18:31:07.251Z,59.72
2019-05-22T18:34:07.191Z,59.32
2019-05-22T18:37:07.175Z,59.45
2019-05-22T18:40:07.138Z,59.75
2019-05-22T18:43:07.106Z,61.98
2019-05-22T18:46:07.070Z,61.80
2019-05-22T18:49:07.050Z,63.06
2019-05-22T18:52:07.001Z,63.86
2019-05-22T18:55:06.979Z,65.72
2019-05-22T18:58:06.930Z,66.29
2019-05-22T19:01:06.921Z,67.10
2019-05-22T19:04:06.876Z,69.20
2019-05-22T19:07:06.844Z,68.82
2019-05-22T19:10:06.810Z,71.57
2019-05-22T19:13:06.780Z,66.96
2019-05-22T19:16:06.735Z,67.67
2019-05-22T19:19:06.727Z,70.65
2019-05-22T19:22:06.698Z,70.25
2019-05-22T19:25:06.651Z,70.79
2019-05-22T19:28:06.613Z,69.26
2019-05-22T19:31:06.593Z,72.14
2019-05-22T19:34:06.548Z,72.78
2019-05-22T19:37:06.527Z,74.76
2019-05-22T19:40:06.489Z,74.15
2019-05-22T19:43:06.455Z,76.93
2019-05-22T19:46:06.427Z,76.83
2019-05-22T19:49:06.378Z,78.16
2019-05-22T19:52:06.358Z,77.98
2019-05-22T19:55:07.134Z,78.84
2019-05-22T19:58:06.299Z,79.69
2019-05-22T20:01:06.250Z,80.10
2019-05-22T20:04:06.235Z,80.65
2019-05-22T20:07:06.207Z,78.61
2019-05-22T20:10:06.153Z,81.81
2019-05-22T20:13:06.158Z,83.24
2019-05-22T20:16:06.097Z,82.69
2019-05-22T20:19:06.087Z,83.85
2019-05-22T20:22:06.024Z,85.08
2019-05-22T20:25:06.009Z,83.18
2019-05-22T20:28:06.005Z,85.57
2019-05-22T20:31:05.933Z,85.36
2019-05-22T20:34:05.919Z,86.59
2019-05-22T20:37:05.863Z,87.96
2019-05-22T20:40:05.885Z,88.06
2019-05-22T20:43:05.834Z,88.51
2019-05-22T20:46:05.769Z,89.68
2019-05-22T20:49:05.744Z,89.47
2019-05-22T20:52:05.709Z,89.68
2019-05-22T20:55:05.696Z,90.64
2019-05-22T20:58:05.664Z,90.75
2019-05-22T21:01:05.634Z,90.64
2019-05-22T21:04:05.583Z,91.16
2019-05-22T21:07:05.540Z,90.58
2019-05-22T21:10:05.531Z,92.83
2019-05-22T21:13:05.480Z,92.63
2019-05-22T21:16:05.474Z,93.04
2019-05-22T21:19:05.444Z,92.69
2019-05-22T21:22:05.383Z,93.00
2019-05-22T21:25:05.356Z,92.38
2019-05-22T21:28:05.311Z,92.83
2019-05-22T21:31:05.294Z,93.66
2019-05-22T21:34:05.265Z,93.60
2019-05-22T21:37:05.217Z,93.60
2019-05-22T21:40:05.250Z,94.11
2019-05-22T21:43:05.150Z,93.90
2019-05-22T21:46:05.155Z,94.11
2019-05-22T21:49:05.086Z,94.42
2019-05-22T21:52:05.082Z,95.07
2019-05-22T21:55:05.032Z,96.62
2019-05-22T21:58:05.417Z,97.23
2019-05-22T22:01:05.033Z,97.17
2019-05-22T22:04:04.987Z,97.69
2019-05-22T22:07:04.921Z,97.89
2019-05-22T22:10:04.859Z,97.38
2019-05-22T22:13:07.657Z,96.87
2019-05-22T22:16:04.795Z,96.97
2019-05-22T22:19:04.818Z,97.38
2019-05-22T22:22:04.730Z,97.22
2019-05-22T22:25:04.715Z,97.73
2019-05-22T22:28:04.690Z,98.10
2019-05-22T22:31:04.635Z,98.25
2019-05-22T22:34:04.626Z,99.07
2019-05-22T22:37:04.574Z,98.10
2019-05-22T22:40:04.645Z,97.99
2019-05-22T22:43:04.505Z,97.83
2019-05-22T22:46:04.500Z,99.02
2019-05-22T22:49:04.468Z,98.10
2019-05-22T22:52:04.437Z,96.97
2019-05-22T22:55:04.386Z,96.66
2019-05-22T22:58:16.814Z,97.17
2019-05-22T23:01:05.325Z,96.15
2019-05-22T23:04:04.302Z,96.66
2019-05-22T23:07:04.250Z,95.74
2019-05-22T23:10:04.229Z,95.94
2019-05-22T23:13:04.235Z,95.94
2019-05-22T23:16:04.149Z,96.30
2019-05-22T23:19:04.140Z,97.27
2019-05-22T23:22:04.114Z,97.94
2019-05-22T23:25:04.224Z,97.47
2019-05-22T23:28:04.046Z,97.16
2019-05-22T23:31:04.033Z,97.67
2019-05-22T23:34:03.972Z,97.67
2019-05-22T23:37:03.949Z,97.67
2019-05-22T23:40:03.892Z,98.08
2019-05-22T23:43:03.907Z,97.57
2019-05-22T23:46:03.831Z,99.11
2019-05-22T23:49:03.811Z,97.82
2019-05-22T23:52:03.800Z,98.24
2019-05-22T23:55:03.729Z,99.05
2019-05-22T23:58:03.709Z,99.37
